createdAt,value
2022-12-04T00:00:44.000Z,26.2
2022-12-04T00:01:59.000Z,27.6
2022-12-04T00:03:16.000Z,26.9
2022-12-04T00:04:32.000Z,25.3
2022-12-04T00:05:48.000Z,26.4
2022-12-04T00:07:04.000Z,26.1
2022-12-04T00:08:21.000Z,26.9
2022-12-04T00:09:37.000Z,26.5
2022-12-04T00:10:53.000Z,28.4
2022-12-04T00:12:09.000Z,26.6
2022-12-04T00:13:24.000Z,25.6
2022-12-04T00:14:40.000Z,25.8
2022-12-04T00:15:56.000Z,26.2
2022-12-04T00:17:12.000Z,25.9
2022-12-04T00:18:28.000Z,26
2022-12-04T00:19:44.000Z,26.8
2022-12-04T00:21:01.000Z,25.9
2022-12-04T00:22:17.000Z,25.3
2022-12-04T00:23:33.000Z,26.7
2022-12-04T00:24:50.000Z,26.1
2022-12-04T00:26:06.000Z,27.1
2022-12-04T00:27:22.000Z,26.5
2022-12-04T00:28:38.000Z,26.3
2022-12-04T00:29:55.000Z,26.8
2022-12-04T00:31:11.000Z,26.8
2022-12-04T00:33:43.000Z,26.4
2022-12-04T00:34:59.000Z,25.7
2022-12-04T00:36:15.000Z,26.1
2022-12-04T00:37:31.000Z,25.6
2022-12-04T00:38:48.000Z,26.1
2022-12-04T00:40:04.000Z,24.8
2022-12-04T00:41:20.000Z,23.9
2022-12-04T00:42:37.000Z,26
2022-12-04T00:43:53.000Z,26.4
2022-12-04T00:45:09.000Z,24.4
2022-12-04T00:46:25.000Z,25.7
2022-12-04T00:47:42.000Z,26.1
2022-12-04T00:48:57.000Z,26.8
2022-12-04T00:50:13.000Z,25.8
2022-12-04T00:51:30.000Z,25.9
2022-12-04T00:52:46.000Z,25.1
2022-12-04T00:54:02.000Z,24.4
2022-12-04T00:55:18.000Z,26.8
2022-12-04T00:56:35.000Z,25.2
2022-12-04T00:59:07.000Z,25
2022-12-04T01:00:24.000Z,25.4
2022-12-04T01:01:40.000Z,26.2
2022-12-04T01:02:56.000Z,25.8
2022-12-04T01:04:13.000Z,24.3
2022-12-04T01:05:28.000Z,26.6
2022-12-04T01:06:44.000Z,24.6
2022-12-04T01:08:00.000Z,25.1
2022-12-04T01:09:17.000Z,24.1
2022-12-04T01:10:33.000Z,23.5
2022-12-04T01:11:49.000Z,26.3
2022-12-04T01:13:06.000Z,24
2022-12-04T01:14:22.000Z,24.8
2022-12-04T01:15:38.000Z,24.8
2022-12-04T01:16:54.000Z,25.6
2022-12-04T01:18:11.000Z,24.5
2022-12-04T01:19:27.000Z,24
2022-12-04T01:20:43.000Z,24.4
2022-12-04T01:21:59.000Z,24.1
2022-12-04T01:24:31.000Z,23.1
2022-12-04T01:25:47.000Z,23.3
2022-12-04T01:27:04.000Z,24.8
2022-12-04T01:28:20.000Z,24.5
2022-12-04T01:29:36.000Z,22.9
2022-12-04T01:30:53.000Z,23.6
2022-12-04T01:32:09.000Z,23.9
2022-12-04T01:33:25.000Z,21.8
2022-12-04T01:34:41.000Z,24.7
2022-12-04T01:35:58.000Z,22.4
2022-12-04T01:37:14.000Z,24.1
2022-12-04T01:38:29.000Z,22.5
2022-12-04T01:41:02.000Z,22.8
2022-12-04T01:42:18.000Z,23
2022-12-04T01:43:34.000Z,22
2022-12-04T01:44:51.000Z,23.7
2022-12-04T01:46:07.000Z,22.6
2022-12-04T01:47:23.000Z,22.6
2022-12-04T01:48:40.000Z,23
2022-12-04T01:49:56.000Z,22.4
2022-12-04T01:51:12.000Z,23.1
2022-12-04T01:52:29.000Z,22.8
2022-12-04T01:53:45.000Z,21.9
2022-12-04T01:55:01.000Z,23.1
2022-12-04T01:56:16.000Z,23.5
2022-12-04T01:57:33.000Z,21.9
2022-12-04T01:58:49.000Z,21.8
2022-12-04T02:00:05.000Z,22.1
2022-12-04T02:01:22.000Z,22.5
2022-12-04T02:02:38.000Z,22.6
2022-12-04T02:03:54.000Z,22.3
2022-12-04T02:05:10.000Z,22.4
2022-12-04T02:06:27.000Z,22.3
2022-12-04T02:07:43.000Z,22.2
2022-12-04T02:08:59.000Z,22.7
2022-12-04T02:10:16.000Z,24
2022-12-04T02:11:32.000Z,22.7
2022-12-04T02:12:47.000Z,21.5
2022-12-04T02:15:20.000Z,22.4
2022-12-04T02:16:36.000Z,21.5
2022-12-04T02:17:52.000Z,22
2022-12-04T02:19:09.000Z,20.7
2022-12-04T02:20:25.000Z,22
2022-12-04T02:21:41.000Z,20.6
2022-12-04T02:22:57.000Z,21.2
2022-12-04T02:24:14.000Z,20.3
2022-12-04T02:25:30.000Z,21
2022-12-04T02:26:46.000Z,20.7
2022-12-04T02:28:03.000Z,20
2022-12-04T02:29:18.000Z,22.1
2022-12-04T02:30:34.000Z,21.8
2022-12-04T02:31:50.000Z,20.9
2022-12-04T02:33:07.000Z,19.6
2022-12-04T02:34:23.000Z,20.9
2022-12-04T02:35:39.000Z,20.6
2022-12-04T02:36:56.000Z,19.9
2022-12-04T02:38:12.000Z,19.8
2022-12-04T02:39:28.000Z,19.7
2022-12-04T02:40:44.000Z,19.9
2022-12-04T02:42:01.000Z,21
2022-12-04T02:43:17.000Z,20.5
2022-12-04T02:44:33.000Z,20.1
2022-12-04T02:45:49.000Z,19.1
2022-12-04T02:47:05.000Z,20.9
2022-12-04T02:48:21.000Z,19.1
2022-12-04T02:50:54.000Z,19.6
2022-12-04T02:52:10.000Z,19.1
2022-12-04T02:53:26.000Z,20.5
2022-12-04T02:54:43.000Z,20.6
2022-12-04T02:55:59.000Z,20.5
2022-12-04T02:57:15.000Z,19.7
2022-12-04T02:58:32.000Z,19.7
2022-12-04T02:59:48.000Z,19.9
2022-12-04T03:01:04.000Z,20.7
2022-12-04T03:02:19.000Z,19.9
2022-12-04T03:03:36.000Z,20.9
2022-12-04T03:06:08.000Z,19.2
2022-12-04T03:07:25.000Z,19.8
2022-12-04T03:08:41.000Z,19
2022-12-04T03:09:57.000Z,19.7
2022-12-04T03:11:13.000Z,20
2022-12-04T03:12:30.000Z,19.4
2022-12-04T03:13:46.000Z,20
2022-12-04T03:15:02.000Z,19.6
2022-12-04T03:16:19.000Z,20.2
2022-12-04T03:18:51.000Z,20
2022-12-04T03:20:06.000Z,19.7
2022-12-04T03:21:23.000Z,20.7
2022-12-04T03:22:39.000Z,19.1
2022-12-04T03:23:55.000Z,19.3
2022-12-04T03:25:12.000Z,20.8
2022-12-04T03:26:28.000Z,20.6
2022-12-04T03:27:44.000Z,19.8
2022-12-04T03:29:00.000Z,21.2
2022-12-04T03:30:17.000Z,19.2
2022-12-04T03:31:33.000Z,19.7
2022-12-04T03:32:49.000Z,20.1
2022-12-04T03:34:06.000Z,21.8
2022-12-04T03:35:22.000Z,20.3
2022-12-04T03:36:37.000Z,20.5
2022-12-04T03:37:54.000Z,21.1
2022-12-04T03:39:10.000Z,21.6
2022-12-04T03:40:26.000Z,20.9
2022-12-04T03:41:42.000Z,20.3
2022-12-04T03:42:59.000Z,21.1
2022-12-04T03:44:15.000Z,21.5
2022-12-04T03:45:31.000Z,19.7
2022-12-04T03:46:48.000Z,18.7
2022-12-04T03:48:04.000Z,19.1
2022-12-04T03:49:20.000Z,20.4
2022-12-04T03:50:36.000Z,20.1
2022-12-04T03:51:53.000Z,20.5
2022-12-04T03:53:08.000Z,21
2022-12-04T03:54:24.000Z,20.7
2022-12-04T03:55:41.000Z,21.2
2022-12-04T03:56:57.000Z,22
2022-12-04T03:58:13.000Z,20.4
2022-12-04T03:59:29.000Z,21.4
2022-12-04T04:00:46.000Z,21
2022-12-04T04:02:02.000Z,21.2
2022-12-04T04:03:18.000Z,19.1
2022-12-04T04:04:35.000Z,21.6
2022-12-04T04:05:51.000Z,20.6
2022-12-04T04:07:07.000Z,21.1
2022-12-04T04:09:40.000Z,21.2
2022-12-04T04:10:55.000Z,21.1
2022-12-04T04:12:11.000Z,22.9
2022-12-04T04:13:28.000Z,21.3
2022-12-04T04:14:44.000Z,21.1
2022-12-04T04:16:00.000Z,21.4
2022-12-04T04:17:16.000Z,20.6
2022-12-04T04:18:33.000Z,21.6
2022-12-04T04:21:05.000Z,20.7
2022-12-04T04:23:38.000Z,20.9
2022-12-04T04:26:10.000Z,20.4
2022-12-04T04:27:25.000Z,21.3
2022-12-04T04:28:40.000Z,20.7
2022-12-04T04:29:56.000Z,20.6
2022-12-04T04:31:12.000Z,20
2022-12-04T04:32:28.000Z,19.1
2022-12-04T04:33:44.000Z,21.9
2022-12-04T04:35:01.000Z,21
2022-12-04T04:36:17.000Z,20.8
2022-12-04T04:37:33.000Z,20.7
2022-12-04T04:38:49.000Z,20
2022-12-04T04:40:06.000Z,20
2022-12-04T04:41:21.000Z,20.4
2022-12-04T04:42:36.000Z,20.7
2022-12-04T04:43:53.000Z,20.2
2022-12-04T04:45:09.000Z,20.8
2022-12-04T04:47:42.000Z,19.7
2022-12-04T04:48:58.000Z,20.8
2022-12-04T04:50:14.000Z,20.4
2022-12-04T04:51:30.000Z,20.3
2022-12-04T04:52:47.000Z,20.4
2022-12-04T04:54:03.000Z,20.8
2022-12-04T04:55:19.000Z,19.8
2022-12-04T04:56:36.000Z,20.5
2022-12-04T04:57:52.000Z,19.4
2022-12-04T04:59:07.000Z,20.2
2022-12-04T05:00:23.000Z,20.5
2022-12-04T05:01:40.000Z,19.9
2022-12-04T05:02:56.000Z,19.5
2022-12-04T05:04:12.000Z,19.8
2022-12-04T05:05:29.000Z,19.6
2022-12-04T05:06:45.000Z,20.1
2022-12-04T05:08:01.000Z,23.5
2022-12-04T05:09:17.000Z,20.2
2022-12-04T05:10:34.000Z,19.3
2022-12-04T05:11:50.000Z,19.8
2022-12-04T05:13:06.000Z,19.6
2022-12-04T05:14:23.000Z,19.3
2022-12-04T05:15:38.000Z,19.4
2022-12-04T05:16:54.000Z,18.5
2022-12-04T05:18:10.000Z,20.5
2022-12-04T05:19:27.000Z,17.9
2022-12-04T05:20:43.000Z,20.2
2022-12-04T05:21:59.000Z,19.9
2022-12-04T05:23:16.000Z,20.4
2022-12-04T05:24:32.000Z,19.4
2022-12-04T05:25:48.000Z,19.3
2022-12-04T05:27:04.000Z,18.4
2022-12-04T05:28:21.000Z,19.2
2022-12-04T05:29:37.000Z,19.3
2022-12-04T05:30:53.000Z,18.9
2022-12-04T05:32:09.000Z,19.6
2022-12-04T05:33:25.000Z,18.8
2022-12-04T05:34:41.000Z,17.6
2022-12-04T05:35:58.000Z,18.4
2022-12-04T05:38:30.000Z,17.8
2022-12-04T05:39:46.000Z,18.1
2022-12-04T05:41:03.000Z,17.4
2022-12-04T05:42:19.000Z,18.1
2022-12-04T05:43:35.000Z,18.7
2022-12-04T05:44:52.000Z,17.5
2022-12-04T05:46:08.000Z,18.3
2022-12-04T05:47:24.000Z,18
2022-12-04T05:48:39.000Z,18.2
2022-12-04T05:51:12.000Z,18.8
2022-12-04T05:52:28.000Z,17.5
2022-12-04T05:55:01.000Z,17
2022-12-04T05:56:16.000Z,17.9
2022-12-04T05:57:31.000Z,19.5
2022-12-04T05:58:48.000Z,17.5
2022-12-04T06:00:04.000Z,16.8
2022-12-04T06:01:20.000Z,17
2022-12-04T06:02:37.000Z,16.7
2022-12-04T06:03:53.000Z,17
2022-12-04T06:05:09.000Z,15.8
2022-12-04T06:06:26.000Z,15.9
2022-12-04T06:07:42.000Z,15.1
2022-12-04T06:08:58.000Z,16
2022-12-04T06:10:13.000Z,15.7
2022-12-04T06:11:29.000Z,16.6
2022-12-04T06:12:45.000Z,17.2
2022-12-04T06:14:01.000Z,16.3
2022-12-04T06:15:18.000Z,15.8
2022-12-04T06:16:34.000Z,15.2
2022-12-04T06:17:50.000Z,14.5
2022-12-04T06:19:06.000Z,15.8
2022-12-04T06:20:23.000Z,16.2
2022-12-04T06:21:39.000Z,15.4
2022-12-04T06:22:55.000Z,15.3
2022-12-04T06:24:12.000Z,15.5
2022-12-04T06:25:28.000Z,15.2
2022-12-04T06:26:44.000Z,16
2022-12-04T06:29:16.000Z,14.6
2022-12-04T06:30:32.000Z,16.6
2022-12-04T06:31:48.000Z,14.7
2022-12-04T06:33:05.000Z,14.4
2022-12-04T06:34:21.000Z,15.7
2022-12-04T06:35:37.000Z,14.8
2022-12-04T06:36:53.000Z,14.6
2022-12-04T06:38:10.000Z,14.3
2022-12-04T06:39:26.000Z,14.5
2022-12-04T06:40:42.000Z,13.7
2022-12-04T06:41:59.000Z,14.5
2022-12-04T06:43:15.000Z,13.5
2022-12-04T06:44:30.000Z,15.2
2022-12-04T06:45:46.000Z,15.3
2022-12-04T06:47:03.000Z,14.2
2022-12-04T06:48:19.000Z,13.8
2022-12-04T06:49:35.000Z,14.1
2022-12-04T06:50:52.000Z,15
2022-12-04T06:52:08.000Z,13.5
2022-12-04T06:53:24.000Z,13.7
2022-12-04T06:54:40.000Z,13.4
2022-12-04T06:55:57.000Z,15.5
2022-12-04T06:58:29.000Z,14.7
2022-12-04T06:59:45.000Z,14.9
2022-12-04T07:01:01.000Z,13.6
2022-12-04T07:02:17.000Z,13.9
2022-12-04T07:03:33.000Z,13.8
2022-12-04T07:04:49.000Z,13.7
2022-12-04T07:06:06.000Z,12.6
2022-12-04T07:07:22.000Z,13.3
2022-12-04T07:08:38.000Z,13.4
2022-12-04T07:09:54.000Z,12.9
2022-12-04T07:11:11.000Z,13.6
2022-12-04T07:12:27.000Z,13.2
2022-12-04T07:13:43.000Z,13.6
2022-12-04T07:14:59.000Z,14.4
2022-12-04T07:16:16.000Z,12.8
2022-12-04T07:17:31.000Z,14.3
2022-12-04T07:20:03.000Z,12.1
2022-12-04T07:21:19.000Z,12.9
2022-12-04T07:22:36.000Z,13.2
2022-12-04T07:23:52.000Z,13.7
2022-12-04T07:25:08.000Z,13.2
2022-12-04T07:26:24.000Z,12.6
2022-12-04T07:27:41.000Z,12.4
2022-12-04T07:28:57.000Z,12.1
2022-12-04T07:30:13.000Z,13.2
2022-12-04T07:34:02.000Z,12
2022-12-04T07:35:17.000Z,12.7
2022-12-04T07:36:32.000Z,10.9
2022-12-04T07:37:49.000Z,11.7
2022-12-04T07:39:05.000Z,11.6
2022-12-04T07:40:21.000Z,11.8
2022-12-04T07:41:37.000Z,11.8
2022-12-04T07:42:54.000Z,11.8
2022-12-04T07:44:10.000Z,12
2022-12-04T07:45:26.000Z,12.4
2022-12-04T07:46:42.000Z,11.5
2022-12-04T07:47:58.000Z,11.5
2022-12-04T07:49:14.000Z,12.6
2022-12-04T07:50:29.000Z,12.5
2022-12-04T07:51:45.000Z,11.5
2022-12-04T07:53:01.000Z,10.1
2022-12-04T07:54:18.000Z,10.7
2022-12-04T07:55:34.000Z,11.7
2022-12-04T07:58:06.000Z,11.9
2022-12-04T07:59:23.000Z,11.7
2022-12-04T08:00:39.000Z,11.1
2022-12-04T08:01:55.000Z,11
2022-12-04T08:03:11.000Z,12.1
2022-12-04T08:04:28.000Z,12.2
2022-12-04T08:05:44.000Z,11.8
2022-12-04T08:06:59.000Z,10.8
2022-12-04T08:08:15.000Z,11.1
2022-12-04T08:10:48.000Z,10.3
2022-12-04T08:13:19.000Z,11.5
2022-12-04T08:14:34.000Z,11
2022-12-04T08:15:50.000Z,12
2022-12-04T08:17:06.000Z,10.6
2022-12-04T08:18:22.000Z,11.6
2022-12-04T08:19:38.000Z,12
2022-12-04T08:20:55.000Z,11.2
2022-12-04T08:22:11.000Z,11.9
2022-12-04T08:23:27.000Z,11.4
2022-12-04T08:24:43.000Z,10.2
2022-12-04T08:26:00.000Z,11.6
2022-12-04T08:27:16.000Z,12
2022-12-04T08:28:31.000Z,11.3
2022-12-04T08:29:46.000Z,10.9
2022-12-04T08:31:03.000Z,11.4
2022-12-04T08:32:19.000Z,11.7
2022-12-04T08:33:35.000Z,11.1
2022-12-04T08:36:08.000Z,10
2022-12-04T08:37:24.000Z,10.4
2022-12-04T08:38:40.000Z,11.2
2022-12-04T08:39:56.000Z,10.4
2022-12-04T08:41:12.000Z,10.8
2022-12-04T08:42:29.000Z,10.4
2022-12-04T08:43:45.000Z,12.1
2022-12-04T08:45:01.000Z,10.4
2022-12-04T08:46:16.000Z,10.3
2022-12-04T08:47:33.000Z,11.7
2022-12-04T08:48:49.000Z,10.3
2022-12-04T08:50:05.000Z,10.2
2022-12-04T08:51:21.000Z,10.7
2022-12-04T08:52:38.000Z,10.3
2022-12-04T08:53:54.000Z,11.1
2022-12-04T08:55:10.000Z,10.3
2022-12-04T08:56:26.000Z,10.9
2022-12-04T08:57:43.000Z,10.4
2022-12-04T08:58:59.000Z,11.4
2022-12-04T09:00:15.000Z,11.7
2022-12-04T09:01:31.000Z,10.4
2022-12-04T09:02:46.000Z,10.3
2022-12-04T09:04:03.000Z,9.9
2022-12-04T09:05:19.000Z,10.1
2022-12-04T09:06:35.000Z,10.1
2022-12-04T09:07:51.000Z,9.7
2022-12-04T09:09:08.000Z,10.8
2022-12-04T09:10:24.000Z,10.2
2022-12-04T09:11:40.000Z,10.4
2022-12-04T09:12:56.000Z,10.1
2022-12-04T09:14:13.000Z,11.3
2022-12-04T09:15:29.000Z,11
2022-12-04T09:16:45.000Z,11.3
2022-12-04T09:18:01.000Z,9.9
2022-12-04T09:19:17.000Z,11
2022-12-04T09:20:32.000Z,10.5
2022-12-04T09:21:48.000Z,10.8
2022-12-04T09:23:04.000Z,11.5
2022-12-04T09:24:20.000Z,10.5
2022-12-04T09:26:53.000Z,10.2
2022-12-04T09:28:09.000Z,10.3
2022-12-04T09:29:25.000Z,10.3
2022-12-04T09:31:58.000Z,10.2
2022-12-04T09:33:14.000Z,11.4
2022-12-04T09:34:30.000Z,11.2
2022-12-04T09:35:46.000Z,10.6
2022-12-04T09:37:01.000Z,10.9
2022-12-04T09:38:17.000Z,10.6
2022-12-04T09:39:33.000Z,12.4
2022-12-04T09:40:50.000Z,10.7
2022-12-04T09:42:06.000Z,10.9
2022-12-04T09:43:22.000Z,10.3
2022-12-04T09:44:38.000Z,10.8
2022-12-04T09:45:54.000Z,10.9
2022-12-04T09:47:11.000Z,10.5
2022-12-04T09:48:27.000Z,10
2022-12-04T09:49:42.000Z,10.6
2022-12-04T09:52:14.000Z,10.8
2022-12-04T09:53:30.000Z,10.7
2022-12-04T09:54:46.000Z,10
2022-12-04T09:56:02.000Z,9.9
2022-12-04T09:57:19.000Z,10
2022-12-04T09:58:35.000Z,10.2
2022-12-04T09:59:51.000Z,10.4
2022-12-04T10:01:07.000Z,10
2022-12-04T10:02:24.000Z,11.2
2022-12-04T10:04:56.000Z,10.9
2022-12-04T10:06:12.000Z,10.1
2022-12-04T10:07:28.000Z,10.3
2022-12-04T10:08:44.000Z,11
2022-12-04T10:10:00.000Z,11.4
2022-12-04T10:11:16.000Z,10.9
2022-12-04T10:12:32.000Z,11.3
2022-12-04T10:13:49.000Z,10
2022-12-04T10:15:05.000Z,10.5
2022-12-04T10:16:21.000Z,10.3
2022-12-04T10:17:37.000Z,10.2
2022-12-04T10:18:54.000Z,9.9
2022-12-04T10:20:10.000Z,11.2
2022-12-04T10:21:26.000Z,10.9
2022-12-04T10:22:42.000Z,10.8
2022-12-04T10:23:58.000Z,11.2
2022-12-04T10:25:14.000Z,10.5
2022-12-04T10:26:30.000Z,10.6
2022-12-04T10:27:46.000Z,10.9
2022-12-04T10:30:19.000Z,11.2
2022-12-04T10:31:35.000Z,11.3
2022-12-04T10:32:51.000Z,11.7
2022-12-04T10:34:07.000Z,10.7
2022-12-04T10:35:24.000Z,10.8
2022-12-04T10:36:40.000Z,11.2
2022-12-04T10:37:56.000Z,10.6
2022-12-04T10:39:12.000Z,10.9
2022-12-04T10:40:28.000Z,11.5
2022-12-04T10:43:00.000Z,11
2022-12-04T10:44:16.000Z,11
2022-12-04T10:45:33.000Z,10.4
2022-12-04T10:46:49.000Z,9.8
2022-12-04T10:48:05.000Z,11.6
2022-12-04T10:49:21.000Z,11.2
2022-12-04T10:50:38.000Z,11.8
2022-12-04T10:51:54.000Z,11.4
2022-12-04T10:53:10.000Z,11.5
2022-12-04T10:54:26.000Z,10.6
2022-12-04T10:55:42.000Z,10.9
2022-12-04T10:56:58.000Z,10.8
2022-12-04T10:58:14.000Z,11.1
2022-12-04T10:59:30.000Z,10.5
2022-12-04T11:00:46.000Z,10.9
2022-12-04T11:02:03.000Z,11.1
2022-12-04T11:03:19.000Z,11.3
2022-12-04T11:04:35.000Z,11.2
2022-12-04T11:05:51.000Z,10.6
2022-12-04T11:07:08.000Z,11.1
2022-12-04T11:08:24.000Z,9.7
2022-12-04T11:09:40.000Z,10.3
2022-12-04T11:10:56.000Z,10
2022-12-04T11:12:13.000Z,10.7
2022-12-04T11:13:28.000Z,11
2022-12-04T11:14:44.000Z,11.1
2022-12-04T11:16:00.000Z,11.3
2022-12-04T11:17:16.000Z,10.6
2022-12-04T11:18:33.000Z,11.2
2022-12-04T11:19:49.000Z,10.5
2022-12-04T11:21:05.000Z,11.6
2022-12-04T11:22:21.000Z,11.3
2022-12-04T11:23:38.000Z,10.5
2022-12-04T11:24:54.000Z,10.4
2022-12-04T11:26:10.000Z,11.1
2022-12-04T11:27:26.000Z,11.3
2022-12-04T11:28:43.000Z,11.3
2022-12-04T11:29:58.318Z,11.2
2022-12-04T11:31:14.000Z,11
2022-12-04T11:33:47.000Z,11.7
2022-12-04T11:35:03.000Z,11.5
2022-12-04T11:36:19.000Z,12.1
2022-12-04T11:37:35.000Z,11.2
2022-12-04T11:38:51.000Z,11.2
2022-12-04T11:40:08.000Z,11.7
2022-12-04T11:41:24.000Z,11.7
2022-12-04T11:42:40.000Z,11.7
2022-12-04T11:43:56.000Z,10.6
2022-12-04T11:45:13.000Z,11.3
2022-12-04T11:46:28.000Z,11.2
2022-12-04T11:47:44.000Z,12.2
2022-12-04T11:49:00.000Z,11.2
2022-12-04T11:50:17.000Z,12.9
2022-12-04T11:51:33.000Z,11.6
2022-12-04T11:52:49.000Z,12.6
2022-12-04T11:54:05.000Z,11.2
2022-12-04T11:55:22.000Z,10.8
2022-12-04T11:56:38.000Z,12
2022-12-04T11:57:54.000Z,11.3
2022-12-04T11:59:10.000Z,12.2
2022-12-04T12:00:26.000Z,13
2022-12-04T12:01:43.000Z,12.6
2022-12-04T12:02:58.000Z,12.1
2022-12-04T12:04:14.000Z,11.5
2022-12-04T12:05:30.000Z,12.1
2022-12-04T12:06:47.000Z,12.6
2022-12-04T12:08:03.000Z,12.9
2022-12-04T12:09:19.000Z,13.1
2022-12-04T12:11:52.000Z,13.1
2022-12-04T12:13:08.000Z,13
2022-12-04T12:14:24.000Z,13.8
2022-12-04T12:15:40.000Z,13.9
2022-12-04T12:16:57.000Z,13.2
2022-12-04T12:18:13.000Z,13.8
2022-12-04T12:19:28.000Z,13.1
2022-12-04T12:20:44.000Z,13.9
2022-12-04T12:22:00.000Z,13.3
2022-12-04T12:23:17.000Z,15
2022-12-04T12:24:33.000Z,12.8
2022-12-04T12:25:49.000Z,13.6
2022-12-04T12:27:05.000Z,14.4
2022-12-04T12:28:22.000Z,14
2022-12-04T12:29:38.000Z,14.4
2022-12-04T12:30:54.000Z,14.1
2022-12-04T12:32:10.000Z,14.6
2022-12-04T12:33:27.000Z,16.8
2022-12-04T12:34:43.000Z,14
2022-12-04T12:35:58.000Z,14.4
2022-12-04T12:37:14.000Z,14
2022-12-04T12:38:31.000Z,13.5
2022-12-04T12:39:47.000Z,14.7
2022-12-04T12:41:03.000Z,14.8
2022-12-04T12:42:19.000Z,13.4
2022-12-04T12:43:35.000Z,13
2022-12-04T12:46:08.000Z,14.4
2022-12-04T12:47:24.000Z,13.7
2022-12-04T12:48:40.000Z,14.7
2022-12-04T12:49:57.000Z,14.8
2022-12-04T12:51:13.000Z,13.3
2022-12-04T12:52:28.000Z,13.9
2022-12-04T12:53:44.000Z,15.1
2022-12-04T12:55:01.000Z,14.6
2022-12-04T12:56:17.000Z,14.7
2022-12-04T12:57:33.000Z,13.8
2022-12-04T12:58:49.000Z,13.9
2022-12-04T13:00:05.000Z,14.8
2022-12-04T13:02:37.000Z,13.4
2022-12-04T13:03:52.000Z,13.9
2022-12-04T13:05:08.000Z,12.6
2022-12-04T13:06:25.000Z,12.7
2022-12-04T13:08:57.000Z,14.9
2022-12-04T13:10:12.000Z,13.9
2022-12-04T13:11:28.000Z,13.6
2022-12-04T13:12:44.000Z,14.2
2022-12-04T13:14:00.000Z,14.6
2022-12-04T13:15:16.000Z,15.2
2022-12-04T13:16:33.000Z,14.8
2022-12-04T13:17:49.000Z,15.3
2022-12-04T13:19:05.000Z,13.8
2022-12-04T13:20:21.000Z,15.3
2022-12-04T13:21:38.000Z,15.3
2022-12-04T13:22:54.000Z,15.4
2022-12-04T13:24:09.000Z,16
2022-12-04T13:25:24.000Z,15.9
2022-12-04T13:27:57.000Z,16.2
2022-12-04T13:29:13.000Z,16.7
2022-12-04T13:30:29.000Z,14.8
2022-12-04T13:31:45.000Z,15
2022-12-04T13:33:02.000Z,15.4
2022-12-04T13:34:18.000Z,17.5
2022-12-04T13:35:34.000Z,16.2
2022-12-04T13:36:50.000Z,16.2
2022-12-04T13:38:07.000Z,16.3
2022-12-04T13:40:39.000Z,15.9
2022-12-04T13:41:54.000Z,15.5
2022-12-04T13:43:10.000Z,16.5
2022-12-04T13:44:26.000Z,16.4
2022-12-04T13:45:42.000Z,18.3
2022-12-04T13:46:58.000Z,17.4
2022-12-04T13:48:15.000Z,17.5
2022-12-04T13:49:31.000Z,17.3
2022-12-04T13:50:47.000Z,17.4
2022-12-04T13:52:03.000Z,18.7
2022-12-04T13:53:19.000Z,17.6
2022-12-04T13:54:36.000Z,17.3
2022-12-04T13:55:51.000Z,16.9
2022-12-04T13:57:06.000Z,17.3
2022-12-04T13:58:22.000Z,16.9
2022-12-04T13:59:39.000Z,16.9
2022-12-04T14:00:55.000Z,18.2
2022-12-04T14:02:11.000Z,15.8
2022-12-04T14:03:27.000Z,16.8
2022-12-04T14:04:44.000Z,17.9
2022-12-04T14:06:00.000Z,17.5
2022-12-04T14:07:16.000Z,16.3
2022-12-04T14:08:32.000Z,16.3
2022-12-04T14:09:49.000Z,18.9
2022-12-04T14:11:05.000Z,17
2022-12-04T14:12:21.000Z,16.7
2022-12-04T14:13:36.000Z,17.3
2022-12-04T14:14:53.000Z,16.4
2022-12-04T14:16:09.000Z,16.4
2022-12-04T14:18:41.000Z,16.2
2022-12-04T14:19:57.000Z,17.4
2022-12-04T14:21:14.000Z,17.9
2022-12-04T14:22:30.000Z,17
2022-12-04T14:23:46.000Z,16.8
2022-12-04T14:25:02.000Z,17.6
2022-12-04T14:26:19.000Z,16.1
2022-12-04T14:27:35.000Z,15.9
2022-12-04T14:28:51.000Z,17.5
2022-12-04T14:30:06.000Z,18
2022-12-04T14:31:23.000Z,17.3
2022-12-04T14:32:39.000Z,18.1
2022-12-04T14:33:55.000Z,16.8
2022-12-04T14:35:11.000Z,16.8
2022-12-04T14:36:28.000Z,17.5
2022-12-04T14:37:44.000Z,16.5
2022-12-04T14:39:00.000Z,16.4
2022-12-04T14:40:16.000Z,17.1
2022-12-04T14:41:32.000Z,16.9
2022-12-04T14:42:49.000Z,16.6
2022-12-04T14:44:05.000Z,17.4
2022-12-04T14:45:21.000Z,17
2022-12-04T14:46:37.000Z,17.4
2022-12-04T14:47:53.000Z,16.1
2022-12-04T14:49:09.000Z,16.2
2022-12-04T14:50:25.000Z,17.5
2022-12-04T14:51:41.000Z,18
2022-12-04T14:52:58.000Z,16.5
2022-12-04T14:54:14.000Z,16.3
2022-12-04T14:56:46.000Z,17.6
2022-12-04T14:58:03.000Z,18.4
2022-12-04T15:00:35.000Z,17.1
2022-12-04T15:03:07.000Z,18.8
2022-12-04T15:04:23.000Z,17
2022-12-04T15:05:38.000Z,18.4
2022-12-04T15:06:54.000Z,18.4
2022-12-04T15:08:10.000Z,18.3
2022-12-04T15:09:27.000Z,19
2022-12-04T15:10:43.000Z,18.8
2022-12-04T15:11:59.000Z,18.8
2022-12-04T15:13:15.000Z,19.7
2022-12-04T15:14:32.000Z,18.8
2022-12-04T15:15:48.000Z,18.6
2022-12-04T15:17:04.000Z,17.7
2022-12-04T15:18:19.000Z,19.4
2022-12-04T15:19:35.000Z,19.9
2022-12-04T15:20:51.000Z,19.2
2022-12-04T15:22:07.000Z,19.7
2022-12-04T15:23:23.000Z,20.8
2022-12-04T15:24:40.000Z,19.6
2022-12-04T15:25:56.000Z,19.6
2022-12-04T15:27:12.000Z,19.6
2022-12-04T15:28:28.000Z,21.2
2022-12-04T15:29:44.000Z,19.3
2022-12-04T15:31:01.000Z,19.7
2022-12-04T15:32:17.000Z,21.8
2022-12-04T15:34:49.000Z,19.7
2022-12-04T15:36:06.000Z,18.6
2022-12-04T15:37:21.000Z,20.7
2022-12-04T15:38:37.000Z,19.6
2022-12-04T15:39:53.000Z,19
2022-12-04T15:41:10.000Z,20.1
2022-12-04T15:42:26.000Z,21.3
2022-12-04T15:43:42.000Z,20
2022-12-04T15:44:58.000Z,18.8
2022-12-04T15:47:31.000Z,21.5
2022-12-04T15:48:47.000Z,19.6
2022-12-04T15:50:04.000Z,17.8
2022-12-04T15:51:20.000Z,18.6
2022-12-04T15:52:36.000Z,19.8
2022-12-04T15:53:51.000Z,19.3
2022-12-04T15:55:08.000Z,18.9
2022-12-04T15:56:24.000Z,18.9
2022-12-04T15:57:40.000Z,18.7
2022-12-04T15:58:57.000Z,19
2022-12-04T16:00:13.000Z,19.2
2022-12-04T16:01:29.000Z,20.8
2022-12-04T16:02:45.000Z,18.1
2022-12-04T16:04:02.000Z,17.9
2022-12-04T16:05:18.000Z,17.6
2022-12-04T16:06:34.000Z,19.9
2022-12-04T16:07:51.000Z,18.2
2022-12-04T16:09:07.000Z,19.2
2022-12-04T16:10:22.000Z,19
2022-12-04T16:11:38.000Z,20
2022-12-04T16:12:55.000Z,20.8
2022-12-04T16:14:11.000Z,19.9
2022-12-04T16:16:44.000Z,21.5
2022-12-04T16:18:00.000Z,21.2
2022-12-04T16:19:16.000Z,20.5
2022-12-04T16:20:32.000Z,19
2022-12-04T16:21:49.000Z,18.1
2022-12-04T16:23:05.000Z,19.3
2022-12-04T16:25:38.000Z,20
2022-12-04T16:26:53.000Z,18
2022-12-04T16:28:09.000Z,18.9
2022-12-04T16:29:26.000Z,18.1
2022-12-04T16:30:42.000Z,18.8
2022-12-04T16:31:58.000Z,19.2
2022-12-04T16:33:14.000Z,18.9
2022-12-04T16:34:31.000Z,20.2
2022-12-04T16:35:47.000Z,18.7
2022-12-04T16:38:20.000Z,18.1
2022-12-04T16:39:35.000Z,19.5
2022-12-04T16:40:50.000Z,18.7
2022-12-04T16:42:06.000Z,20.4
2022-12-04T16:43:23.000Z,19
2022-12-04T16:44:39.000Z,18.7
2022-12-04T16:45:55.000Z,19.6
2022-12-04T16:47:12.000Z,18.6
2022-12-04T16:48:28.000Z,18.6
2022-12-04T16:49:44.000Z,19.1
2022-12-04T16:51:00.000Z,19.1
2022-12-04T16:52:17.000Z,17.3
2022-12-04T16:53:32.000Z,17.3
2022-12-04T16:54:47.000Z,17.5
2022-12-04T16:56:04.000Z,18.3
2022-12-04T16:57:20.000Z,19
2022-12-04T16:58:36.000Z,18
2022-12-04T16:59:53.000Z,18.6
2022-12-04T17:01:09.000Z,18
2022-12-04T17:03:41.000Z,19.4
2022-12-04T17:04:58.000Z,18
2022-12-04T17:06:14.000Z,19.3
2022-12-04T17:07:30.000Z,18.2
2022-12-04T17:08:47.000Z,17.7
2022-12-04T17:10:03.000Z,16.6
2022-12-04T17:11:18.000Z,17.8
2022-12-04T17:12:34.000Z,18.7
2022-12-04T17:13:51.000Z,16.7
2022-12-04T17:15:07.000Z,16.5
2022-12-04T17:16:23.000Z,17.2
2022-12-04T17:17:40.000Z,17.2
2022-12-04T17:18:55.000Z,17.1
2022-12-04T17:20:11.000Z,16.5
2022-12-04T17:21:27.000Z,16.7
2022-12-04T17:22:44.000Z,17.6
2022-12-04T17:24:00.000Z,17.7
2022-12-04T17:25:16.000Z,18.1
2022-12-04T17:26:33.000Z,17.6
2022-12-04T17:29:05.000Z,16.9
2022-12-04T17:30:21.000Z,16.2
2022-12-04T17:31:38.000Z,17
2022-12-04T17:32:54.000Z,16.5
2022-12-04T17:34:10.000Z,16.4
2022-12-04T17:35:26.000Z,15.8
2022-12-04T17:36:42.000Z,15.8
2022-12-04T17:37:58.000Z,16.6
2022-12-04T17:39:14.000Z,17
2022-12-04T17:40:31.000Z,16.9
2022-12-04T17:41:47.000Z,17.8
2022-12-04T17:43:03.000Z,16.2
2022-12-04T17:44:20.000Z,15.7
2022-12-04T17:45:36.000Z,16
2022-12-04T17:46:52.000Z,15.6
2022-12-04T17:48:08.000Z,15.6
2022-12-04T17:49:25.000Z,15.3
2022-12-04T17:50:41.000Z,15.7
2022-12-04T17:54:29.000Z,17.2
2022-12-04T17:55:44.000Z,17.2
2022-12-04T17:57:00.000Z,16.7
2022-12-04T17:58:16.000Z,16
2022-12-04T17:59:32.000Z,15
2022-12-04T18:00:48.000Z,16.1
2022-12-04T18:02:05.000Z,16.1
2022-12-04T18:03:21.000Z,15.3
2022-12-04T18:04:37.000Z,15.3
2022-12-04T18:07:10.000Z,16.1